createdAt,value
2017-08-26T00:00:15.667Z,96.4
2017-08-26T00:01:23.454Z,97.3
2017-08-26T00:02:30.937Z,96.7
2017-08-26T00:03:38.429Z,96.5
2017-08-26T00:04:45.570Z,96.6
2017-08-26T00:05:52.719Z,96.2
2017-08-26T00:07:00.552Z,97.3
2017-08-26T00:08:08.039Z,98.1
2017-08-26T00:09:15.518Z,97.9
2017-08-26T00:10:23.014Z,98
2017-08-26T00:11:30.493Z,98.1
2017-08-26T00:12:37.943Z,98.1
2017-08-26T00:13:45.443Z,98.8
2017-08-26T00:14:52.924Z,98.8
2017-08-26T00:16:00.405Z,99
2017-08-26T00:17:07.884Z,98.6
2017-08-26T00:18:15.670Z,98.3
2017-08-26T00:19:23.151Z,98.3
2017-08-26T00:20:30.632Z,98.8
2017-08-26T00:21:38.113Z,99
2017-08-26T00:22:45.262Z,98.7
2017-08-26T00:23:53.100Z,98.2
2017-08-26T00:25:00.584Z,98.1
2017-08-26T00:26:08.074Z,97.8
2017-08-26T00:27:15.550Z,98.5
2017-08-26T00:28:23.034Z,98.9
2017-08-26T00:29:30.529Z,98.5
2017-08-26T00:30:38.015Z,98.6
2017-08-26T00:31:45.494Z,98.3
2017-08-26T00:32:52.973Z,98.7
2017-08-26T00:34:00.458Z,98.5
2017-08-26T00:35:08.242Z,99
2017-08-26T00:36:15.730Z,99.1
2017-08-26T00:37:23.222Z,99.3
2017-08-26T00:38:30.706Z,99.6
2017-08-26T00:39:38.190Z,99.3
2017-08-26T00:40:45.973Z,99
2017-08-26T00:41:53.459Z,97.8
2017-08-26T00:43:00.948Z,97.6
2017-08-26T00:44:08.099Z,98.2
2017-08-26T00:45:15.581Z,98.4
2017-08-26T00:46:23.416Z,98.9
2017-08-26T00:47:30.567Z,99.1
2017-08-26T00:48:38.048Z,98.7
2017-08-26T00:49:45.526Z,98
2017-08-26T00:50:52.673Z,97.6
2017-08-26T00:52:00.511Z,97.7
2017-08-26T00:53:07.991Z,99.3
2017-08-26T00:54:15.473Z,98.5
2017-08-26T00:55:22.954Z,98.5
2017-08-26T00:56:30.430Z,98.4
2017-08-26T00:57:38.263Z,97.3
2017-08-26T00:58:45.740Z,97.4
2017-08-26T00:59:52.892Z,97.8
2017-08-26T01:01:00.365Z,97.7
2017-08-26T01:02:07.849Z,97.6
2017-08-26T01:03:15.685Z,98.3
2017-08-26T01:04:23.166Z,98.8
2017-08-26T01:05:30.643Z,98.9
2017-08-26T01:06:38.122Z,97.8
2017-08-26T01:07:45.607Z,97.5
2017-08-26T01:08:53.391Z,98.6
2017-08-26T01:10:00.541Z,99.4
2017-08-26T01:11:08.021Z,99.2
2017-08-26T01:12:15.505Z,99.5
2017-08-26T01:13:22.986Z,99.9
2017-08-26T01:14:30.477Z,99.9
2017-08-26T01:15:37.283Z,99.9
2017-08-26T01:16:44.765Z,99.9
2017-08-26T01:17:52.254Z,99.9
2017-08-26T01:18:59.733Z,99.9
2017-08-26T01:20:07.185Z,99.9
2017-08-26T01:21:14.334Z,99.9
2017-08-26T01:22:21.817Z,99.6
2017-08-26T01:23:29.301Z,99.9
2017-08-26T01:24:36.785Z,99.7
2017-08-26T01:25:44.615Z,99.2
2017-08-26T01:26:52.094Z,99.2
2017-08-26T01:27:59.245Z,99.1
2017-08-26T01:29:06.730Z,98.4
2017-08-26T01:30:14.212Z,98.3
2017-08-26T01:31:22.111Z,98.8
2017-08-26T01:32:29.596Z,98.4
2017-08-26T01:33:37.082Z,97.6
2017-08-26T01:34:44.562Z,97.8
2017-08-26T01:35:52.045Z,97.9
2017-08-26T01:36:59.878Z,97.3
2017-08-26T01:38:07.356Z,97.2
2017-08-26T01:39:14.842Z,97.8
2017-08-26T01:40:22.327Z,97.4
2017-08-26T01:41:29.811Z,97.5
2017-08-26T01:42:37.589Z,98.5
2017-08-26T01:43:45.065Z,98.7
2017-08-26T01:44:52.547Z,98.2
2017-08-26T01:46:00.030Z,98.5
2017-08-26T01:47:07.509Z,99
2017-08-26T01:48:15.293Z,99
2017-08-26T01:49:22.466Z,99.2
2017-08-26T01:50:29.941Z,99.5
2017-08-26T01:51:37.423Z,99.2
2017-08-26T01:52:44.906Z,99.2
2017-08-26T01:53:52.684Z,99.2
2017-08-26T01:55:00.162Z,97.5
2017-08-26T01:56:07.645Z,97.9
2017-08-26T01:57:15.126Z,97.9
2017-08-26T01:58:22.611Z,97.5
2017-08-26T01:59:30.435Z,97.5
2017-08-26T02:00:37.919Z,98
2017-08-26T02:01:45.400Z,98.8
2017-08-26T02:02:52.888Z,98.3
2017-08-26T02:04:00.367Z,97.9
2017-08-26T02:05:08.196Z,98.4
2017-08-26T02:06:15.685Z,98.9
2017-08-26T02:07:23.167Z,99.2
2017-08-26T02:08:30.652Z,99.4
2017-08-26T02:09:38.127Z,99
2017-08-26T02:10:45.960Z,99.5
2017-08-26T02:11:53.441Z,98.7
2017-08-26T02:13:00.595Z,97.3
2017-08-26T02:14:08.080Z,98
2017-08-26T02:15:15.561Z,97.9
2017-08-26T02:16:23.396Z,97.7
2017-08-26T02:17:30.876Z,97.8
2017-08-26T02:18:38.364Z,96.9
2017-08-26T02:19:45.848Z,96.3
2017-08-26T02:20:52.996Z,95.8
2017-08-26T02:22:00.499Z,96.9
2017-08-26T02:23:07.989Z,96.9
2017-08-26T02:24:15.465Z,97.9
2017-08-26T02:25:22.950Z,98.1
2017-08-26T02:26:30.431Z,98.4
2017-08-26T02:27:38.259Z,98.5
2017-08-26T02:28:45.405Z,98.9
2017-08-26T02:29:52.884Z,98.8
2017-08-26T02:31:00.367Z,98.9
2017-08-26T02:32:07.853Z,98.8
2017-08-26T02:33:15.759Z,98.6
2017-08-26T02:34:22.898Z,98.9
2017-08-26T02:35:30.380Z,98.5
2017-08-26T02:36:37.869Z,98.7
2017-08-26T02:37:45.346Z,98.9
2017-08-26T02:38:53.154Z,99.1
2017-08-26T02:40:00.642Z,99.2
2017-08-26T02:41:08.118Z,97.8
2017-08-26T02:42:15.265Z,97.3
2017-08-26T02:43:22.743Z,97.7
2017-08-26T02:44:30.532Z,97.2
2017-08-26T02:45:38.012Z,96.5
2017-08-26T02:46:45.489Z,97.2
2017-08-26T02:47:52.975Z,97.1
2017-08-26T02:49:00.454Z,97.5
2017-08-26T02:50:07.904Z,97.5
2017-08-26T02:51:15.053Z,97.9
2017-08-26T02:52:22.197Z,98.2
2017-08-26T02:53:29.680Z,98.4
2017-08-26T02:54:36.826Z,98.4
2017-08-26T02:55:44.612Z,98.2
2017-08-26T02:56:52.100Z,97.7
2017-08-26T02:57:59.246Z,97.9
2017-08-26T02:59:06.725Z,97.7
2017-08-26T03:00:13.870Z,98.2
2017-08-26T03:01:21.317Z,98.1
2017-08-26T03:02:28.797Z,98.3
2017-08-26T03:03:36.287Z,98.2
2017-08-26T03:04:43.775Z,98.7
2017-08-26T03:05:51.261Z,99.1
2017-08-26T03:06:59.038Z,99.2
2017-08-26T03:08:06.517Z,99.1
2017-08-26T03:09:13.997Z,99.1
2017-08-26T03:10:21.485Z,98.7
2017-08-26T03:11:28.971Z,98.4
2017-08-26T03:12:36.749Z,98.8
2017-08-26T03:13:44.248Z,98.9
2017-08-26T03:14:51.729Z,97.7
2017-08-26T03:15:59.209Z,97.7
2017-08-26T03:17:06.710Z,98
2017-08-26T03:18:13.821Z,99.1
2017-08-26T03:19:21.306Z,99.1
2017-08-26T03:20:28.788Z,99.1
2017-08-26T03:21:35.936Z,99.4
2017-08-26T03:22:43.420Z,99.3
2017-08-26T03:23:51.204Z,99.3
2017-08-26T03:24:58.684Z,98.4
2017-08-26T03:26:06.167Z,99
2017-08-26T03:27:13.649Z,99.1
2017-08-26T03:28:21.134Z,99.1
2017-08-26T03:29:28.919Z,99.1
2017-08-26T03:30:36.397Z,99.1
2017-08-26T03:31:43.923Z,99.1
2017-08-26T03:32:51.413Z,99.1
2017-08-26T03:33:58.902Z,99.5
2017-08-26T03:35:06.680Z,99.7
2017-08-26T03:36:14.164Z,99.9
2017-08-26T03:37:21.639Z,99.9
2017-08-26T03:38:29.118Z,99.9
2017-08-26T03:39:36.269Z,99.9
2017-08-26T03:40:43.746Z,99.9
2017-08-26T03:41:50.556Z,99.9
2017-08-26T03:42:58.040Z,99.4
2017-08-26T03:44:05.524Z,99
2017-08-26T03:45:13.313Z,99.9
2017-08-26T03:46:20.799Z,99.9
2017-08-26T03:47:28.316Z,99.5
2017-08-26T03:48:35.800Z,99.4
2017-08-26T03:49:42.946Z,98.6
2017-08-26T03:50:50.726Z,99.5
2017-08-26T03:51:57.900Z,99
2017-08-26T03:53:05.379Z,98.2
2017-08-26T03:54:12.528Z,98.8
2017-08-26T03:55:20.020Z,98.6
2017-08-26T03:56:27.796Z,99
2017-08-26T03:57:35.294Z,99.2
2017-08-26T03:58:42.765Z,99.4
2017-08-26T03:59:50.242Z,99.1
2017-08-26T04:00:57.729Z,98.6
2017-08-26T04:02:05.508Z,98.5
2017-08-26T04:03:12.999Z,99.2
2017-08-26T04:04:20.477Z,99.9
2017-08-26T04:05:27.626Z,99.9
2017-08-26T04:06:35.115Z,99.9
2017-08-26T04:07:42.596Z,99.1
2017-08-26T04:08:50.077Z,99.7
2017-08-26T04:09:57.562Z,99.2
2017-08-26T04:11:04.711Z,99.7
2017-08-26T04:12:12.196Z,99.4
2017-08-26T04:13:19.645Z,99.9
2017-08-26T04:14:27.126Z,99.9
2017-08-26T04:15:34.609Z,99.9
2017-08-26T04:16:42.105Z,99.8
2017-08-26T04:17:49.549Z,99.9
2017-08-26T04:18:57.030Z,99.5
2017-08-26T04:20:04.509Z,99.9
2017-08-26T04:21:11.988Z,99.8
2017-08-26T04:22:19.471Z,98.7
2017-08-26T04:23:27.255Z,98.9
2017-08-26T04:24:34.408Z,98
2017-08-26T04:25:41.555Z,98.9
2017-08-26T04:26:49.038Z,99.5
2017-08-26T04:27:56.188Z,99.9
2017-08-26T04:29:03.966Z,99.9
2017-08-26T04:30:11.447Z,99.9
2017-08-26T04:31:18.927Z,99.9
2017-08-26T04:32:26.414Z,99.9
2017-08-26T04:33:33.907Z,99.9
2017-08-26T04:34:41.695Z,99.9
2017-08-26T04:35:49.179Z,99.9
2017-08-26T04:36:56.660Z,99.9
2017-08-26T04:38:04.139Z,99.9
2017-08-26T04:39:11.294Z,99.9
2017-08-26T04:40:19.073Z,99.9
2017-08-26T04:41:26.548Z,99.9
2017-08-26T04:42:34.026Z,99.9
2017-08-26T04:43:41.504Z,99.9
2017-08-26T04:44:48.990Z,99.9
2017-08-26T04:45:56.478Z,99.9
2017-08-26T04:47:04.258Z,99.9
2017-08-26T04:49:33.802Z,99.9
2017-08-26T04:50:41.284Z,99.9
2017-08-26T04:51:48.762Z,99.9
2017-08-26T04:52:56.545Z,98.7
2017-08-26T04:54:04.024Z,99.1
2017-08-26T04:55:11.503Z,98.7
2017-08-26T04:56:18.983Z,98.9
2017-08-26T04:57:26.461Z,98.9
2017-08-26T04:58:34.296Z,99.1
2017-08-26T04:59:41.776Z,99.5
2017-08-26T05:00:49.255Z,99.5
2017-08-26T05:01:56.738Z,99.9
2017-08-26T05:03:04.214Z,99.9
2017-08-26T05:04:11.694Z,99.9
2017-08-26T05:05:19.180Z,99.7
2017-08-26T05:06:26.657Z,99.6
2017-08-26T05:07:34.132Z,99.3
2017-08-26T05:08:41.613Z,99.3
2017-08-26T05:09:49.405Z,99.2
2017-08-26T05:10:56.554Z,99.7
2017-08-26T05:12:03.704Z,99.6
2017-08-26T05:13:11.180Z,99.8
2017-08-26T05:14:18.334Z,99.7
2017-08-26T05:15:25.726Z,99.4
2017-08-26T05:16:33.217Z,99.7
2017-08-26T05:17:40.712Z,97.7
2017-08-26T05:18:47.851Z,97.8
2017-08-26T05:19:55.003Z,99.9
2017-08-26T05:21:02.835Z,99.9
2017-08-26T05:22:10.315Z,98.2
2017-08-26T05:23:17.469Z,99.5
2017-08-26T05:24:24.947Z,99.9
2017-08-26T05:25:32.085Z,99.9
2017-08-26T05:26:39.935Z,99.9
2017-08-26T05:27:47.417Z,99.9
2017-08-26T05:28:54.923Z,99.9
2017-08-26T05:30:02.065Z,99.9
2017-08-26T05:31:09.544Z,99.9
2017-08-26T05:32:17.385Z,99.9
2017-08-26T05:33:24.867Z,99.9
2017-08-26T05:34:32.349Z,99.9
2017-08-26T05:35:39.828Z,99.9
2017-08-26T05:36:47.320Z,99.9
2017-08-26T05:37:55.097Z,99.9
2017-08-26T05:39:02.574Z,99.9
2017-08-26T05:40:10.052Z,99.9
2017-08-26T05:41:17.530Z,99.9
2017-08-26T05:42:25.007Z,99.9
2017-08-26T05:43:32.160Z,99.9
2017-08-26T05:44:39.642Z,99.9
2017-08-26T05:45:47.119Z,99.9
2017-08-26T05:46:54.601Z,99.9
2017-08-26T05:48:02.078Z,99.9
2017-08-26T05:49:09.813Z,99.9
2017-08-26T05:50:17.294Z,99.9
2017-08-26T05:51:24.777Z,99.9
2017-08-26T05:52:32.255Z,99.9
2017-08-26T05:53:39.736Z,99.9
2017-08-26T05:54:47.516Z,99.9
2017-08-26T05:55:55.002Z,99.9
2017-08-26T05:57:02.496Z,99.9
2017-08-26T05:58:09.982Z,99.9
2017-08-26T05:59:17.124Z,99.9
2017-08-26T06:00:24.621Z,99.9
2017-08-26T06:01:31.771Z,99.9
2017-08-26T06:02:39.257Z,99.9
2017-08-26T06:03:46.757Z,99.9
2017-08-26T06:04:54.239Z,99.9
2017-08-26T06:06:02.068Z,99.9
2017-08-26T06:07:09.551Z,99.9
2017-08-26T06:08:17.030Z,99.9
2017-08-26T06:09:24.516Z,99.9
2017-08-26T06:10:31.993Z,99.9
2017-08-26T06:11:39.822Z,99.9
2017-08-26T06:12:47.298Z,99.9
2017-08-26T06:13:54.782Z,99.9
2017-08-26T06:15:02.265Z,99.9
2017-08-26T06:16:09.744Z,99.9
2017-08-26T06:17:17.585Z,99.9
2017-08-26T06:18:24.731Z,99.9
2017-08-26T06:19:32.208Z,99.9
2017-08-26T06:20:39.359Z,99.9
2017-08-26T06:21:46.504Z,99.9
2017-08-26T06:22:53.984Z,99.9
2017-08-26T06:24:01.463Z,99.9
2017-08-26T06:25:08.611Z,99.9
2017-08-26T06:26:16.095Z,99.9
2017-08-26T06:27:23.577Z,99.9
2017-08-26T06:28:31.089Z,99.9
2017-08-26T06:29:38.800Z,99.9
2017-08-26T06:30:46.276Z,99.9
2017-08-26T06:31:53.759Z,99.9
2017-08-26T06:33:01.258Z,99.9
2017-08-26T06:34:09.089Z,99.9
2017-08-26T06:35:16.578Z,99.9
2017-08-26T06:36:24.067Z,99.9
2017-08-26T06:37:31.550Z,99.9
2017-08-26T06:38:39.053Z,99.5
2017-08-26T06:39:46.888Z,99.5
2017-08-26T06:40:54.365Z,99.8
2017-08-26T06:42:01.846Z,98.6
2017-08-26T06:43:09.548Z,98.9
2017-08-26T06:44:17.030Z,98.8
2017-08-26T06:45:24.516Z,98.5
2017-08-26T06:46:31.343Z,98.6
2017-08-26T06:47:38.491Z,99.2
2017-08-26T06:48:45.975Z,98.7
2017-08-26T06:49:53.476Z,98.4
2017-08-26T06:51:00.957Z,98.8
2017-08-26T06:52:08.442Z,98.8
2017-08-26T06:53:15.925Z,99.2
2017-08-26T06:54:23.413Z,98.6
2017-08-26T06:55:31.248Z,98.8
2017-08-26T06:56:38.736Z,98.1
2017-08-26T06:57:46.221Z,98.2
2017-08-26T06:58:53.701Z,98.5
2017-08-26T07:00:01.182Z,98
2017-08-26T07:01:09.014Z,98
2017-08-26T07:02:16.496Z,97.8
2017-08-26T07:03:23.979Z,97.5
2017-08-26T07:04:31.457Z,97.1
2017-08-26T07:05:38.610Z,97
2017-08-26T07:06:46.447Z,97.2
2017-08-26T07:07:53.925Z,96.4
2017-08-26T07:09:01.408Z,97
2017-08-26T07:10:08.894Z,96.8
2017-08-26T07:11:16.039Z,96.5
2017-08-26T07:12:23.877Z,95.7
2017-08-26T07:13:31.026Z,95.9
2017-08-26T07:14:38.504Z,95.3
2017-08-26T07:15:45.987Z,95.4
2017-08-26T07:16:53.478Z,95.6
2017-08-26T07:18:01.312Z,95.3
2017-08-26T07:19:08.796Z,95.6
2017-08-26T07:20:15.958Z,94.6
2017-08-26T07:21:23.440Z,94.8
2017-08-26T07:22:30.925Z,94.6
2017-08-26T07:23:38.423Z,94
2017-08-26T07:24:45.908Z,94
2017-08-26T07:25:53.389Z,94.8
2017-08-26T07:27:00.541Z,94.4
2017-08-26T07:28:08.041Z,93.3
2017-08-26T07:29:15.874Z,94.2
2017-08-26T07:30:23.358Z,94.1
2017-08-26T07:31:30.838Z,93.5
2017-08-26T07:32:38.328Z,93.4
2017-08-26T07:33:45.811Z,92.6
2017-08-26T07:34:53.650Z,93.3
2017-08-26T07:36:01.139Z,93.4
2017-08-26T07:37:08.619Z,92.6
2017-08-26T07:38:16.108Z,93
2017-08-26T07:39:23.591Z,92.9
2017-08-26T07:40:31.432Z,92.5
2017-08-26T07:41:38.920Z,92.1
2017-08-26T07:42:46.404Z,91.1
2017-08-26T07:43:53.891Z,91.6
2017-08-26T07:45:01.372Z,92.4
2017-08-26T07:46:09.157Z,92.4
2017-08-26T07:47:16.313Z,91.7
2017-08-26T07:48:23.457Z,91.6
2017-08-26T07:49:30.944Z,91
2017-08-26T07:50:38.431Z,91.8
2017-08-26T07:51:46.262Z,91.8
2017-08-26T07:52:53.742Z,91.3
2017-08-26T07:54:01.226Z,90.7
2017-08-26T07:55:08.375Z,90.7
2017-08-26T07:56:15.856Z,90.8
2017-08-26T07:57:23.687Z,90.8
2017-08-26T07:58:31.201Z,90.1
2017-08-26T07:59:38.699Z,89.6
2017-08-26T08:00:46.195Z,89.6
2017-08-26T08:01:53.689Z,89.4
2017-08-26T08:03:01.190Z,90
2017-08-26T08:04:08.675Z,90
2017-08-26T08:05:16.155Z,87.7
2017-08-26T08:06:23.640Z,89.4
2017-08-26T08:07:31.123Z,90.5
2017-08-26T08:08:38.955Z,90.1
2017-08-26T08:09:46.437Z,87.7
2017-08-26T08:10:53.920Z,90
2017-08-26T08:12:00.749Z,88.9
2017-08-26T08:13:08.243Z,87.6
2017-08-26T08:14:15.397Z,87.5
2017-08-26T08:15:22.876Z,87.7
2017-08-26T08:16:30.659Z,88.8
2017-08-26T08:17:38.139Z,88.3
2017-08-26T08:18:45.624Z,88.3
2017-08-26T08:19:53.106Z,86.6
2017-08-26T08:21:00.603Z,86.6
2017-08-26T08:22:08.389Z,85.4
2017-08-26T08:23:15.876Z,84.8
2017-08-26T08:24:23.361Z,86.4
2017-08-26T08:25:30.852Z,87.8
2017-08-26T08:26:38.335Z,86.5
2017-08-26T08:27:46.122Z,87
2017-08-26T08:28:53.608Z,87.8
2017-08-26T08:30:01.094Z,89.6
2017-08-26T08:31:08.578Z,86.9
2017-08-26T08:32:15.731Z,88.7
2017-08-26T08:33:23.220Z,88.1
2017-08-26T08:34:30.728Z,87.1
2017-08-26T08:35:38.216Z,86.6
2017-08-26T08:36:45.697Z,84.5
2017-08-26T08:37:53.183Z,86.5
2017-08-26T08:39:00.636Z,83.8
2017-08-26T08:40:08.123Z,83.1
2017-08-26T08:41:15.289Z,83.8
2017-08-26T08:42:22.767Z,85.3
2017-08-26T08:43:30.252Z,83.5
2017-08-26T08:44:38.040Z,82.6
2017-08-26T08:45:45.519Z,82.6
2017-08-26T08:46:52.673Z,84.8
2017-08-26T08:48:00.155Z,83.6
2017-08-26T08:49:07.642Z,82.4
2017-08-26T08:50:15.466Z,83.6
2017-08-26T08:51:22.949Z,84.3
2017-08-26T08:52:30.438Z,81.5
2017-08-26T08:53:37.924Z,81.9
2017-08-26T08:54:45.413Z,81.2
2017-08-26T08:55:52.562Z,81.2
2017-08-26T08:57:00.047Z,80.5
2017-08-26T08:58:07.199Z,79.3
2017-08-26T08:59:14.684Z,81
2017-08-26T09:00:22.474Z,82
2017-08-26T09:01:29.962Z,79.8
2017-08-26T09:02:37.107Z,80.8
2017-08-26T09:03:44.587Z,82.8
2017-08-26T09:04:51.733Z,81
2017-08-26T09:05:59.521Z,80.2
2017-08-26T09:07:07.007Z,80.3
2017-08-26T09:08:14.500Z,80.9
2017-08-26T09:09:21.996Z,82.8
2017-08-26T09:10:29.478Z,79.1
2017-08-26T09:11:37.265Z,79.7
2017-08-26T09:12:44.749Z,81.7
2017-08-26T09:13:52.235Z,80.5
2017-08-26T09:14:59.723Z,80.4
2017-08-26T09:16:07.214Z,78.8
2017-08-26T09:17:14.997Z,78.8
2017-08-26T09:18:22.480Z,79.4
2017-08-26T09:19:29.971Z,78.9
2017-08-26T09:20:37.121Z,80.2
2017-08-26T09:21:44.615Z,79.1
2017-08-26T09:22:52.073Z,79.3
2017-08-26T09:23:59.560Z,79.9
2017-08-26T09:25:06.713Z,77
2017-08-26T09:26:14.213Z,79
2017-08-26T09:27:21.698Z,76.6
2017-08-26T09:28:29.483Z,78.8
2017-08-26T09:29:36.976Z,77.6
2017-08-26T09:30:44.461Z,77.7
2017-08-26T09:31:51.949Z,75.7
2017-08-26T09:32:59.438Z,76.7
2017-08-26T09:34:07.241Z,78.8
2017-08-26T09:35:14.402Z,75.8
2017-08-26T09:36:21.881Z,75.4
2017-08-26T09:37:29.362Z,77.5
2017-08-26T09:38:36.851Z,76.4
2017-08-26T09:39:44.652Z,75.7
2017-08-26T09:40:52.137Z,76.4
2017-08-26T09:41:59.618Z,79.2
2017-08-26T09:43:07.106Z,76.2
2017-08-26T09:44:14.614Z,75.5
2017-08-26T09:46:43.502Z,74.7
2017-08-26T09:47:50.657Z,73.3
2017-08-26T09:48:58.141Z,77
2017-08-26T09:50:05.625Z,75.6
2017-08-26T09:51:13.094Z,74.9
2017-08-26T09:52:20.594Z,74.5
2017-08-26T09:53:28.081Z,76.4
2017-08-26T09:54:35.567Z,74.3
2017-08-26T09:55:43.058Z,74.8
2017-08-26T09:56:50.837Z,75.1
2017-08-26T09:57:58.325Z,74.3
2017-08-26T09:59:05.814Z,74.2
2017-08-26T10:00:13.305Z,74.1
2017-08-26T10:01:20.797Z,74.6
2017-08-26T10:02:28.251Z,74.9
2017-08-26T10:03:35.737Z,74
2017-08-26T10:04:43.226Z,74.5
2017-08-26T10:05:50.713Z,73
2017-08-26T10:06:58.200Z,75.3
2017-08-26T10:08:05.987Z,71.7
2017-08-26T10:09:13.468Z,72.1
2017-08-26T10:10:20.950Z,71.5
2017-08-26T10:11:28.442Z,72.8
2017-08-26T10:12:35.943Z,71.7
2017-08-26T10:13:43.732Z,72.2
2017-08-26T10:14:50.890Z,73
2017-08-26T10:15:58.383Z,72.4
2017-08-26T10:17:05.877Z,70.3
2017-08-26T10:18:13.363Z,70.7
2017-08-26T10:19:20.821Z,66.9
2017-08-26T10:20:28.316Z,69.8
2017-08-26T10:21:35.817Z,67.9
2017-08-26T10:22:43.302Z,67.5
2017-08-26T10:23:50.792Z,69.8
2017-08-26T10:24:58.579Z,67.4
2017-08-26T10:26:06.068Z,67.9
2017-08-26T10:27:13.221Z,67.1
2017-08-26T10:28:20.711Z,68.4
2017-08-26T10:29:27.874Z,65.6
2017-08-26T10:30:35.665Z,66.7
2017-08-26T10:31:43.389Z,65.9
2017-08-26T10:32:50.872Z,63.8
2017-08-26T10:33:58.032Z,63.1
2017-08-26T10:35:05.186Z,66.9
2017-08-26T10:36:12.971Z,66.1
2017-08-26T10:37:20.454Z,67.6
2017-08-26T10:38:27.943Z,65.6
2017-08-26T10:39:35.430Z,65.2
2017-08-26T10:40:42.921Z,66.3
2017-08-26T10:41:50.380Z,67.3
2017-08-26T10:42:57.868Z,67.2
2017-08-26T10:44:04.686Z,66.6
2017-08-26T10:45:11.840Z,64.7
2017-08-26T10:46:18.998Z,65
2017-08-26T10:47:26.788Z,64.8
2017-08-26T10:48:34.277Z,67.4
2017-08-26T10:49:41.432Z,65.9
2017-08-26T10:50:48.923Z,67
2017-08-26T10:51:56.424Z,66.6
2017-08-26T10:53:04.222Z,65.5
2017-08-26T10:54:11.708Z,65.5
2017-08-26T10:55:19.197Z,67.3
2017-08-26T10:56:26.687Z,66.8
2017-08-26T10:57:34.176Z,66.2
2017-08-26T10:58:41.967Z,66.6
2017-08-26T10:59:49.458Z,63.7
2017-08-26T11:00:56.951Z,65
2017-08-26T11:02:04.434Z,66.7
2017-08-26T11:03:11.601Z,65
2017-08-26T11:04:19.393Z,63.1
2017-08-26T11:05:26.887Z,63.8
2017-08-26T11:06:34.389Z,63.4
2017-08-26T11:07:41.874Z,64.3
2017-08-26T11:08:49.362Z,62.4
2017-08-26T11:09:56.821Z,64
2017-08-26T11:11:04.309Z,65.9
2017-08-26T11:12:11.798Z,63.1
2017-08-26T11:13:18.958Z,63.3
2017-08-26T11:14:26.446Z,62.3
2017-08-26T11:15:34.233Z,62
2017-08-26T11:16:41.726Z,60.1
2017-08-26T11:17:49.219Z,60.4
2017-08-26T11:18:56.708Z,63
2017-08-26T11:20:04.200Z,61.4
2017-08-26T11:21:11.993Z,64.8
2017-08-26T11:22:19.499Z,63
2017-08-26T11:23:26.981Z,62.3
2017-08-26T11:24:34.154Z,58.2
2017-08-26T11:25:41.649Z,56.5
2017-08-26T11:26:49.107Z,60.3
2017-08-26T11:27:56.599Z,58.7
2017-08-26T11:29:04.100Z,59.4
2017-08-26T11:30:11.589Z,59.2
2017-08-26T11:31:19.078Z,58.3
2017-08-26T11:32:26.530Z,59.6
2017-08-26T11:33:34.019Z,57.2
2017-08-26T11:34:41.517Z,58.2
2017-08-26T11:35:49.003Z,61.1
2017-08-26T11:36:56.170Z,56.8
2017-08-26T11:38:03.957Z,58.9
2017-08-26T11:39:11.111Z,59.1
2017-08-26T11:40:18.268Z,59.7
2017-08-26T11:41:25.758Z,55.7
2017-08-26T11:42:32.918Z,56.8
2017-08-26T11:45:02.782Z,59
2017-08-26T11:46:10.269Z,60.1
2017-08-26T11:47:17.760Z,58.9
2017-08-26T11:48:25.257Z,59.4
2017-08-26T11:49:33.055Z,58.5
2017-08-26T11:50:40.576Z,57.1
2017-08-26T11:51:48.058Z,60.5
2017-08-26T11:52:55.550Z,57.6
2017-08-26T11:54:02.365Z,56.4
2017-08-26T11:55:10.153Z,57.1
2017-08-26T11:56:17.641Z,56.8
2017-08-26T11:57:25.137Z,56.7
2017-08-26T11:58:32.295Z,58.5
2017-08-26T11:59:39.782Z,58.9
2017-08-26T12:00:47.568Z,58
2017-08-26T12:01:55.059Z,59.4
2017-08-26T12:03:02.547Z,59.9
2017-08-26T12:04:10.035Z,59.4
2017-08-26T12:05:17.520Z,60.1
2017-08-26T12:06:25.307Z,58.1
2017-08-26T12:07:32.143Z,57.9
2017-08-26T12:08:39.628Z,59.2
2017-08-26T12:09:47.112Z,56.8
2017-08-26T12:10:54.598Z,58.2
2017-08-26T12:12:02.061Z,58.5
2017-08-26T12:13:09.552Z,56.4
2017-08-26T12:14:17.051Z,57.2
2017-08-26T12:15:24.204Z,57.2
2017-08-26T12:16:31.697Z,55
2017-08-26T12:17:39.498Z,55.6
2017-08-26T12:18:46.994Z,56.1
2017-08-26T12:19:54.482Z,54
2017-08-26T12:21:01.975Z,55.2
2017-08-26T12:22:09.472Z,54.8
2017-08-26T12:23:17.261Z,56.9
2017-08-26T12:24:24.746Z,54.7
2017-08-26T12:25:32.241Z,54
2017-08-26T12:26:39.735Z,55.3
2017-08-26T12:27:47.222Z,56.9
2017-08-26T12:28:55.034Z,55.8
2017-08-26T12:30:02.518Z,54.3
2017-08-26T12:31:10.005Z,55.1
2017-08-26T12:32:17.492Z,54.7
2017-08-26T12:33:24.980Z,54.9
2017-08-26T12:34:32.439Z,55.5
2017-08-26T12:35:39.935Z,54.2
2017-08-26T12:36:47.430Z,54.1
2017-08-26T12:37:54.584Z,56.3
2017-08-26T12:39:02.068Z,53
2017-08-26T12:40:09.863Z,54.6
2017-08-26T12:41:17.349Z,54.7
2017-08-26T12:42:24.859Z,55.2
2017-08-26T12:43:32.367Z,54.3
2017-08-26T12:44:39.188Z,53.5
2017-08-26T12:45:46.983Z,58.7
2017-08-26T12:46:54.487Z,53.6
2017-08-26T12:48:01.984Z,54.6
2017-08-26T12:49:09.476Z,54.9
2017-08-26T12:50:16.963Z,53.5
2017-08-26T12:51:24.759Z,56
2017-08-26T12:52:32.248Z,53.5
2017-08-26T12:53:39.742Z,53.7
2017-08-26T12:54:47.250Z,55.8
2017-08-26T12:55:54.762Z,55.2
2017-08-26T12:57:02.556Z,56
2017-08-26T12:58:10.049Z,53.1
2017-08-26T12:59:17.548Z,54.7
2017-08-26T13:00:25.042Z,53
2017-08-26T13:01:32.534Z,53.4
2017-08-26T13:02:40.320Z,56.3
2017-08-26T13:03:47.831Z,57.5
2017-08-26T13:04:54.976Z,55.2
2017-08-26T13:06:02.466Z,55.2
2017-08-26T13:07:09.978Z,56.6
2017-08-26T13:08:17.771Z,56.3
2017-08-26T13:09:25.260Z,57.3
2017-08-26T13:10:32.757Z,57.2
2017-08-26T13:11:41.258Z,56.7
2017-08-26T13:12:48.750Z,58.6
2017-08-26T13:13:56.534Z,57.1
2017-08-26T13:15:04.028Z,56.1
2017-08-26T13:16:11.519Z,55.2
2017-08-26T13:17:19.041Z,57.2
2017-08-26T13:18:26.537Z,58
2017-08-26T13:19:34.347Z,56.7
2017-08-26T13:20:41.835Z,55.1
2017-08-26T13:21:48.990Z,56.2
2017-08-26T13:22:56.486Z,58.5
2017-08-26T13:24:03.981Z,57.7
2017-08-26T13:25:11.771Z,57.1
2017-08-26T13:26:19.284Z,58.4
2017-08-26T13:27:26.772Z,57.7
2017-08-26T13:28:34.262Z,59.9
2017-08-26T13:29:41.748Z,56.4
2017-08-26T13:30:49.537Z,55.5
2017-08-26T13:31:57.028Z,57.8
2017-08-26T13:33:04.529Z,55.8
2017-08-26T13:34:12.027Z,55.9
2017-08-26T13:35:19.555Z,55.7
2017-08-26T13:36:27.347Z,54.8
2017-08-26T13:37:34.504Z,56.9
2017-08-26T13:38:41.997Z,55.3
2017-08-26T13:39:48.873Z,55.6
2017-08-26T13:40:56.363Z,55.7
2017-08-26T13:42:04.160Z,55.8
2017-08-26T13:43:11.652Z,56
2017-08-26T13:44:19.136Z,56.6
2017-08-26T13:45:26.628Z,55.6
2017-08-26T13:46:34.127Z,56.6
2017-08-26T13:47:41.917Z,56.6
2017-08-26T13:48:49.405Z,56.1
2017-08-26T13:49:56.904Z,56.1
2017-08-26T13:51:04.394Z,55.5
2017-08-26T13:52:11.885Z,57.5
2017-08-26T13:53:19.377Z,56.3
2017-08-26T13:54:26.865Z,55.8
2017-08-26T13:55:34.361Z,56.1
2017-08-26T13:56:41.820Z,57.6
2017-08-26T13:57:49.312Z,59.2
2017-08-26T13:58:56.808Z,60
2017-08-26T14:00:04.297Z,57.8
2017-08-26T14:01:11.785Z,57.2
2017-08-26T14:02:19.620Z,56
2017-08-26T14:03:27.109Z,57.3
2017-08-26T14:04:34.270Z,57.3
2017-08-26T14:05:41.762Z,56.7
2017-08-26T14:06:49.252Z,56
2017-08-26T14:07:57.088Z,56.9
2017-08-26T14:09:04.580Z,56.4
2017-08-26T14:10:11.732Z,55.6
2017-08-26T14:11:19.240Z,56.8
2017-08-26T14:12:26.750Z,56.3
2017-08-26T14:13:34.248Z,55.4
2017-08-26T14:14:41.742Z,54.3
2017-08-26T14:15:49.235Z,54.7
2017-08-26T14:16:56.724Z,54.9
2017-08-26T14:18:04.217Z,55.2
2017-08-26T14:19:11.721Z,55.2
2017-08-26T14:20:18.874Z,54.8
2017-08-26T14:21:26.372Z,55.2
2017-08-26T14:22:33.870Z,52.8
2017-08-26T14:23:41.391Z,54.7
2017-08-26T14:24:48.892Z,53.7
2017-08-26T14:25:56.390Z,53.9
2017-08-26T14:27:03.874Z,53.6
2017-08-26T14:28:11.369Z,52.9
2017-08-26T14:29:18.524Z,53
2017-08-26T14:30:26.026Z,52
2017-08-26T14:31:33.518Z,52.5
2017-08-26T14:32:41.238Z,52.9
2017-08-26T14:33:48.738Z,52.9
2017-08-26T14:34:56.230Z,52.9
2017-08-26T14:36:04.077Z,51.7
2017-08-26T14:37:10.908Z,53.9
2017-08-26T14:38:18.397Z,52.7
2017-08-26T14:39:25.883Z,54.2
2017-08-26T14:40:33.377Z,53.5
2017-08-26T14:41:40.894Z,53.5
2017-08-26T14:42:48.388Z,54.5
2017-08-26T14:43:55.550Z,55.5
2017-08-26T14:45:02.710Z,56.1
2017-08-26T14:46:09.862Z,54.9
2017-08-26T14:47:17.655Z,54.6
2017-08-26T14:48:25.151Z,54.7
2017-08-26T14:49:32.312Z,54.5
2017-08-26T14:50:39.802Z,54
2017-08-26T14:51:47.295Z,54.4
2017-08-26T14:52:54.782Z,53.6
2017-08-26T14:54:02.273Z,53.6
2017-08-26T14:55:09.767Z,55.2
2017-08-26T14:56:17.255Z,56.5
2017-08-26T14:57:24.751Z,56.5
2017-08-26T14:58:32.253Z,57
2017-08-26T14:59:39.743Z,57.9
2017-08-26T15:00:47.255Z,58.7
2017-08-26T15:01:54.971Z,56.7
2017-08-26T15:03:02.462Z,56.9
2017-08-26T15:04:09.972Z,58.5
2017-08-26T15:05:17.466Z,59.1
2017-08-26T15:06:24.959Z,58.5